createdAt,value
2023-02-12T00:00:11.482Z,29.23
2023-02-12T00:02:20.213Z,28.15
2023-02-12T00:04:23.000Z,29.85
2023-02-12T00:06:26.102Z,30.90
2023-02-12T00:08:29.265Z,30.73
2023-02-12T00:10:32.232Z,29.90
2023-02-12T00:12:35.010Z,30.42
2023-02-12T00:14:38.210Z,32.38
2023-02-12T00:16:42.404Z,28.05
2023-02-12T00:18:46.261Z,32.80
2023-02-12T00:20:49.084Z,30.48
2023-02-12T00:22:51.911Z,31.92
2023-02-12T00:24:54.651Z,32.90
2023-02-12T00:26:57.509Z,32.92
2023-02-12T00:29:00.322Z,28.67
2023-02-12T00:31:07.018Z,32.70
2023-02-12T00:33:11.218Z,37.22
2023-02-12T00:35:14.460Z,35.25
2023-02-12T00:37:17.809Z,29.42
2023-02-12T00:39:20.593Z,34.88
2023-02-12T00:41:24.694Z,27.73
2023-02-12T00:43:27.519Z,30.40
2023-02-12T00:45:30.296Z,28.90
2023-02-12T00:47:34.067Z,29.35
2023-02-12T00:49:38.184Z,29.63
2023-02-12T00:51:41.344Z,30.02
2023-02-12T00:53:47.837Z,31.05
2023-02-12T00:55:50.663Z,30.17
2023-02-12T00:57:53.463Z,30.80
2023-02-12T00:59:56.648Z,32.83
2023-02-12T01:01:59.884Z,32.40
2023-02-12T01:04:02.702Z,34.35
2023-02-12T01:06:07.324Z,34.28
2023-02-12T01:08:12.708Z,32.80
2023-02-12T01:10:15.506Z,32.00
2023-02-12T01:12:18.936Z,34.03
2023-02-12T01:14:22.811Z,33.83
2023-02-12T01:16:26.093Z,29.65
2023-02-12T01:18:29.002Z,30.90
2023-02-12T01:20:31.743Z,29.67
2023-02-12T01:22:37.024Z,30.33
2023-02-12T01:24:39.802Z,28.85
2023-02-12T01:26:42.558Z,27.92
2023-02-12T01:28:49.739Z,33.13
2023-02-12T01:30:52.655Z,30.63
2023-02-12T01:32:55.627Z,29.95
2023-02-12T01:34:58.457Z,30.88
2023-02-12T01:37:01.265Z,28.88
2023-02-12T01:39:06.592Z,31.17
2023-02-12T01:41:13.021Z,28.92
2023-02-12T01:43:15.816Z,29.73
2023-02-12T01:45:50.510Z,27.55
2023-02-12T01:47:53.640Z,31.58
2023-02-12T01:49:56.622Z,32.28
2023-02-12T01:52:03.837Z,34.05
2023-02-12T01:54:11.643Z,34.28
2023-02-12T01:56:15.550Z,30.92
2023-02-12T01:58:18.996Z,31.80
2023-02-12T02:00:24.089Z,32.67
2023-02-12T02:02:28.629Z,33.03
2023-02-12T02:04:34.452Z,30.90
2023-02-12T02:06:42.777Z,31.92
2023-02-12T02:08:45.563Z,30.88
2023-02-12T02:10:49.702Z,30.95
2023-02-12T02:13:12.065Z,33.22
2023-02-12T02:15:13.998Z,36.28
2023-02-12T02:17:29.430Z,34.83
2023-02-12T02:22:03.141Z,32.55
2023-02-12T02:24:27.709Z,30.75
2023-02-12T02:27:03.120Z,34.55
2023-02-12T02:29:35.622Z,33.30
2023-02-12T02:31:43.605Z,36.55
2023-02-12T02:33:54.807Z,38.95
2023-02-12T02:36:13.576Z,37.22
2023-02-12T02:38:25.172Z,36.65
2023-02-12T02:40:34.219Z,39.25
2023-02-12T02:42:40.325Z,33.78
2023-02-12T02:44:54.593Z,31.92
2023-02-12T02:47:00.254Z,33.20
2023-02-12T02:49:06.107Z,36.38
2023-02-12T02:51:13.007Z,36.47
2023-02-12T02:53:20.871Z,34.50
2023-02-12T02:55:27.797Z,39.95
2023-02-12T02:57:36.699Z,35.85
2023-02-12T02:59:45.440Z,34.30
2023-02-12T03:01:54.057Z,37.03
2023-02-12T03:04:03.625Z,36.58
2023-02-12T03:06:11.118Z,35.53
2023-02-12T03:08:23.936Z,35.50
2023-02-12T03:10:30.655Z,33.80
2023-02-12T03:12:38.257Z,33.85
2023-02-12T03:14:45.925Z,42.70
2023-02-12T03:16:56.102Z,36.47
2023-02-12T03:19:07.828Z,34.33
2023-02-12T03:21:13.785Z,46.50
2023-02-12T03:23:20.546Z,40.30
2023-02-12T03:25:26.557Z,41.35
2023-02-12T03:27:33.441Z,42.67
2023-02-12T03:29:36.912Z,38.45
2023-02-12T03:31:54.952Z,40.00
2023-02-12T03:34:10.084Z,39.08
2023-02-12T03:36:23.155Z,38.58
2023-02-12T03:38:35.942Z,42.45
2023-02-12T03:40:42.193Z,44.03
2023-02-12T03:42:49.785Z,50.60
2023-02-12T03:44:58.962Z,43.67
2023-02-12T03:47:08.225Z,42.55
2023-02-12T03:49:21.093Z,41.88
2023-02-12T03:51:29.791Z,39.60
2023-02-12T03:53:33.411Z,40.92
2023-02-12T03:55:41.316Z,35.72
2023-02-12T03:57:47.905Z,42.05
2023-02-12T03:59:51.572Z,38.20
2023-02-12T04:01:56.728Z,45.17
2023-02-12T04:04:01.094Z,39.78
2023-02-12T04:06:06.101Z,41.28
2023-02-12T04:08:12.611Z,39.17
2023-02-12T04:10:16.143Z,42.83
2023-02-12T04:12:40.130Z,39.13
2023-02-12T04:14:51.147Z,43.22
2023-02-12T04:17:01.511Z,40.13
2023-02-12T04:19:04.838Z,41.70
2023-02-12T04:21:15.363Z,36.63
2023-02-12T04:23:29.154Z,38.83
2023-02-12T04:25:58.159Z,43.78
2023-02-12T04:28:10.961Z,36.53
2023-02-12T04:30:21.921Z,39.60
2023-02-12T04:32:32.608Z,34.85
2023-02-12T04:34:42.344Z,34.40
2023-02-12T04:36:52.511Z,38.30
2023-02-12T04:38:59.481Z,35.67
2023-02-12T04:41:02.711Z,34.42
2023-02-12T04:43:05.604Z,34.53
2023-02-12T04:45:11.022Z,35.58
2023-02-12T04:47:15.009Z,31.55
2023-02-12T04:49:19.997Z,35.05
2023-02-12T04:51:22.837Z,36.58
2023-02-12T04:53:27.067Z,44.28
2023-02-12T04:55:29.847Z,37.83
2023-02-12T04:57:32.656Z,44.17
2023-02-12T04:59:35.439Z,35.38
2023-02-12T05:01:39.422Z,39.33
2023-02-12T05:03:42.302Z,38.63
2023-02-12T05:05:45.074Z,39.25
2023-02-12T05:07:48.222Z,42.60
2023-02-12T05:09:52.576Z,42.38
2023-02-12T05:11:55.356Z,39.42
2023-02-12T05:13:58.153Z,45.95
2023-02-12T05:16:03.490Z,38.92
2023-02-12T05:18:06.643Z,40.25
2023-02-12T05:20:10.297Z,41.70
2023-02-12T05:22:14.046Z,43.58
2023-02-12T05:24:16.862Z,42.67
2023-02-12T05:26:22.983Z,37.05
2023-02-12T05:28:25.999Z,39.47
2023-02-12T05:30:28.943Z,38.10
2023-02-12T05:32:31.813Z,38.80
2023-02-12T05:34:35.154Z,38.45
2023-02-12T05:36:37.920Z,39.70
2023-02-12T05:38:40.978Z,40.63
2023-02-12T05:40:43.796Z,42.50
2023-02-12T05:42:47.920Z,38.63
2023-02-12T05:44:50.718Z,40.85
2023-02-12T05:46:53.581Z,38.08
2023-02-12T05:48:56.367Z,39.78
2023-02-12T05:51:03.284Z,38.08
2023-02-12T05:53:06.161Z,37.65
2023-02-12T05:55:09.426Z,36.38
2023-02-12T05:57:12.241Z,34.53
2023-02-12T05:59:17.856Z,38.92
2023-02-12T06:01:23.117Z,39.38
2023-02-12T06:03:25.974Z,41.15
2023-02-12T06:05:28.800Z,35.63
2023-02-12T06:07:31.624Z,38.13
2023-02-12T06:09:34.875Z,39.08
2023-02-12T06:11:38.619Z,34.30
2023-02-12T06:13:41.499Z,35.08
2023-02-12T06:15:45.624Z,37.25
2023-02-12T06:17:48.447Z,36.13
2023-02-12T06:19:51.301Z,41.25
2023-02-12T06:21:54.142Z,38.33
2023-02-12T06:23:57.000Z,39.63
2023-02-12T06:26:00.130Z,36.55
2023-02-12T06:28:02.924Z,37.92
2023-02-12T06:30:06.807Z,38.88
2023-02-12T06:32:13.481Z,36.90
2023-02-12T06:34:17.933Z,39.97
2023-02-12T06:36:20.769Z,37.22
2023-02-12T06:38:23.582Z,39.20
2023-02-12T06:40:26.329Z,37.20
2023-02-12T06:42:29.086Z,35.22
2023-02-12T06:44:32.089Z,39.67
2023-02-12T06:46:35.234Z,43.17
2023-02-12T06:48:39.440Z,38.72
2023-02-12T06:50:42.250Z,37.58
2023-02-12T06:52:45.140Z,35.70
2023-02-12T06:54:48.004Z,41.08
2023-02-12T06:56:50.884Z,37.63
2023-02-12T06:58:55.850Z,33.58
2023-02-12T07:03:02.008Z,36.08
2023-02-12T07:05:06.526Z,36.78
2023-02-12T07:07:09.315Z,37.55
2023-02-12T07:09:12.147Z,37.33
2023-02-12T07:11:15.851Z,38.22
2023-02-12T07:13:18.624Z,37.38
2023-02-12T07:15:21.801Z,43.35
2023-02-12T07:17:24.582Z,42.08
2023-02-12T07:19:27.473Z,42.80
2023-02-12T07:21:31.991Z,37.75
2023-02-12T07:23:35.533Z,40.28
2023-02-12T07:25:38.339Z,38.22
2023-02-12T07:27:41.204Z,45.40
2023-02-12T07:29:44.211Z,42.10
2023-02-12T07:31:47.266Z,40.40
2023-02-12T07:33:50.961Z,41.03
2023-02-12T07:35:54.133Z,40.45
2023-02-12T07:37:59.361Z,40.65
2023-02-12T07:40:02.298Z,39.47
2023-02-12T07:42:05.403Z,39.97
2023-02-12T07:44:12.652Z,40.35
2023-02-12T07:46:18.437Z,45.80
2023-02-12T07:48:21.203Z,44.72
2023-02-12T07:50:23.972Z,40.60
2023-02-12T07:52:26.830Z,42.92
2023-02-12T07:54:30.941Z,41.53
2023-02-12T07:56:35.906Z,38.95
2023-02-12T08:00:41.409Z,44.33
2023-02-12T08:02:44.316Z,42.28
2023-02-12T08:04:47.229Z,42.05
2023-02-12T08:06:52.319Z,41.78
2023-02-12T08:10:59.932Z,37.30
2023-02-12T08:13:02.742Z,41.60
2023-02-12T08:15:06.219Z,38.63
2023-02-12T08:17:09.216Z,40.78
2023-02-12T08:19:19.433Z,41.97
2023-02-12T08:21:26.416Z,42.22
2023-02-12T08:23:29.190Z,42.28
2023-02-12T08:25:31.971Z,43.85
2023-02-12T08:27:36.067Z,37.53
2023-02-12T08:29:38.862Z,34.97
2023-02-12T08:31:43.629Z,38.53
2023-02-12T08:33:48.609Z,37.92
2023-02-12T08:35:51.345Z,42.20
2023-02-12T08:37:54.275Z,41.85
2023-02-12T08:39:57.193Z,42.45
2023-02-12T08:42:02.188Z,47.03
2023-02-12T08:44:07.129Z,41.75
2023-02-12T08:46:11.616Z,36.53
2023-02-12T08:48:14.460Z,39.95
2023-02-12T08:50:17.486Z,41.70
2023-02-12T08:52:20.277Z,44.42
2023-02-12T08:54:25.380Z,39.97
2023-02-12T08:56:30.530Z,41.95
2023-02-12T08:58:33.846Z,43.15
2023-02-12T09:00:40.409Z,43.92
2023-02-12T09:02:43.510Z,46.05
2023-02-12T09:04:46.332Z,42.78
2023-02-12T09:06:49.857Z,40.30
2023-02-12T09:08:53.538Z,43.22
2023-02-12T09:10:56.379Z,44.03
2023-02-12T09:12:59.108Z,47.08
2023-02-12T09:15:01.871Z,40.55
2023-02-12T09:17:06.098Z,40.20
2023-02-12T09:19:09.715Z,43.55
2023-02-12T09:21:16.585Z,41.92
2023-02-12T09:23:19.407Z,42.90
2023-02-12T09:25:22.222Z,42.75
2023-02-12T09:27:25.031Z,41.00
2023-02-12T09:29:27.851Z,46.97
2023-02-12T09:31:32.360Z,48.10
2023-02-12T09:33:36.758Z,43.65
2023-02-12T09:35:39.964Z,43.45
2023-02-12T09:37:44.780Z,40.38
2023-02-12T09:42:18.746Z,42.47
2023-02-12T09:44:27.517Z,40.15
2023-02-12T09:46:33.279Z,45.13
2023-02-12T09:48:52.374Z,49.25
2023-02-12T09:50:57.636Z,38.20
2023-02-12T09:53:01.189Z,39.25
2023-02-12T09:55:04.732Z,49.00
2023-02-12T09:57:15.752Z,47.25
2023-02-12T09:59:34.930Z,42.60
2023-02-12T10:01:37.870Z,45.20
2023-02-12T10:03:43.104Z,42.05
2023-02-12T10:05:50.267Z,42.15
2023-02-12T10:08:14.411Z,40.85
2023-02-12T10:10:32.235Z,44.58
2023-02-12T10:12:41.442Z,43.83
2023-02-12T10:15:15.440Z,43.90
2023-02-12T10:17:28.021Z,40.65
2023-02-12T10:19:52.592Z,43.72
2023-02-12T10:22:05.840Z,40.63
2023-02-12T10:24:42.226Z,41.55
2023-02-12T10:28:52.248Z,44.60
2023-02-12T10:30:58.709Z,44.03
2023-02-12T10:33:06.554Z,45.20
2023-02-12T10:35:16.914Z,39.30
2023-02-12T10:37:29.384Z,38.97
2023-02-12T10:39:37.036Z,39.88
2023-02-12T10:41:45.982Z,42.00
2023-02-12T10:43:48.837Z,33.20
2023-02-12T10:45:52.331Z,34.92
2023-02-12T10:48:05.510Z,35.75
2023-02-12T10:50:25.537Z,38.88
2023-02-12T10:52:40.093Z,39.47
2023-02-12T10:54:45.012Z,37.58
2023-02-12T10:56:47.873Z,40.35
2023-02-12T10:58:56.899Z,38.33
2023-02-12T11:01:01.882Z,36.53
2023-02-12T11:03:07.974Z,40.45
2023-02-12T11:05:25.721Z,38.58
2023-02-12T11:07:29.702Z,37.97
2023-02-12T11:09:40.563Z,38.57
2023-02-12T11:11:43.396Z,35.03
2023-02-12T11:13:49.637Z,40.17
2023-02-12T11:15:53.460Z,36.67
2023-02-12T11:17:59.774Z,34.10
2023-02-12T11:20:10.160Z,34.60
2023-02-12T11:22:18.869Z,36.60
2023-02-12T11:24:27.458Z,36.08
2023-02-12T11:26:31.849Z,32.45
2023-02-12T11:28:36.574Z,33.47
2023-02-12T11:32:53.151Z,29.20
2023-02-12T11:35:06.621Z,31.15
2023-02-12T11:37:17.238Z,31.10
2023-02-12T11:39:24.772Z,36.20
2023-02-12T11:41:34.507Z,29.35
2023-02-12T11:43:39.408Z,28.88
2023-02-12T11:47:48.779Z,27.75
2023-02-12T11:49:54.672Z,24.33
2023-02-12T11:52:01.449Z,27.17
2023-02-12T11:54:07.484Z,22.65
2023-02-12T11:56:12.808Z,24.52
2023-02-12T11:58:17.891Z,21.98
2023-02-12T12:00:23.939Z,22.15
2023-02-12T12:02:35.817Z,21.20
2023-02-12T12:04:41.871Z,18.58
2023-02-12T12:06:49.012Z,19.65
2023-02-12T12:08:58.239Z,20.98
2023-02-12T12:11:09.424Z,18.73
2023-02-12T12:13:17.230Z,20.70
2023-02-12T12:15:42.908Z,19.27
2023-02-12T12:18:09.439Z,18.95
2023-02-12T12:20:18.384Z,13.15
2023-02-12T12:22:47.478Z,16.73
2023-02-12T12:24:56.675Z,16.42
2023-02-12T12:27:24.230Z,24.17
2023-02-12T12:29:42.535Z,37.53
2023-02-12T12:31:48.230Z,23.05
2023-02-12T12:33:54.749Z,15.90
2023-02-12T12:36:35.104Z,13.20
2023-02-12T12:38:52.633Z,12.38
2023-02-12T12:41:05.146Z,14.30
2023-02-12T12:43:20.895Z,13.82
2023-02-12T12:45:43.654Z,14.38
2023-02-12T12:48:02.688Z,15.43
2023-02-12T12:50:24.919Z,12.35
2023-02-12T12:52:41.713Z,11.70
2023-02-12T12:55:02.396Z,13.65
2023-02-12T12:57:16.866Z,15.93
2023-02-12T12:59:50.652Z,15.23
2023-02-12T13:02:19.202Z,17.02
2023-02-12T13:04:57.569Z,12.90
2023-02-12T13:07:21.527Z,15.88
2023-02-12T13:09:51.059Z,15.50
2023-02-12T13:12:13.354Z,13.48
2023-02-12T13:14:31.919Z,10.15
2023-02-12T13:16:41.186Z,11.52
2023-02-12T13:18:52.221Z,16.67
2023-02-12T13:21:05.181Z,11.93
2023-02-12T13:23:15.631Z,12.98
2023-02-12T13:25:26.222Z,10.60
2023-02-12T13:27:34.483Z,11.55
2023-02-12T13:29:42.186Z,14.60
2023-02-12T13:31:50.953Z,13.88
2023-02-12T13:33:58.631Z,12.15
2023-02-12T13:36:06.156Z,11.93
2023-02-12T13:38:14.294Z,13.73
2023-02-12T13:40:19.152Z,10.07
2023-02-12T13:44:38.601Z,14.15
2023-02-12T13:46:53.121Z,13.40
2023-02-12T13:49:03.341Z,12.55
2023-02-12T13:51:19.215Z,13.02
2023-02-12T13:53:28.219Z,12.40
2023-02-12T13:55:35.522Z,11.07
2023-02-12T13:57:38.374Z,12.15
2023-02-12T13:59:47.298Z,11.82
2023-02-12T14:01:52.250Z,16.67
2023-02-12T14:03:55.056Z,14.45
2023-02-12T14:06:13.929Z,13.52
2023-02-12T14:08:37.221Z,12.38
2023-02-12T14:10:42.414Z,13.23
2023-02-12T14:12:46.940Z,13.80
2023-02-12T14:14:52.624Z,12.88
2023-02-12T14:16:57.168Z,12.75
2023-02-12T14:19:33.285Z,14.00
2023-02-12T14:21:36.949Z,14.18
2023-02-12T14:23:42.060Z,17.02
2023-02-12T14:25:49.119Z,18.27
2023-02-12T14:27:54.017Z,15.52
2023-02-12T14:33:00.814Z,13.45
2023-02-12T14:35:34.250Z,11.63
2023-02-12T14:37:38.442Z,12.35
2023-02-12T14:39:41.374Z,11.10
2023-02-12T14:41:44.187Z,11.82
2023-02-12T14:44:02.177Z,11.70
2023-02-12T14:46:42.190Z,11.20
2023-02-12T14:48:53.873Z,11.13
2023-02-12T14:50:57.138Z,12.63
2023-02-12T14:53:08.544Z,11.38
2023-02-12T14:55:23.219Z,11.88
2023-02-12T14:57:29.912Z,9.88
2023-02-12T14:59:38.829Z,12.77
2023-02-12T15:01:43.683Z,11.77
2023-02-12T15:03:53.194Z,12.82
2023-02-12T15:06:01.954Z,14.82
2023-02-12T15:08:09.942Z,11.45
2023-02-12T15:10:19.503Z,10.90
2023-02-12T15:12:31.263Z,10.80
2023-02-12T15:14:38.875Z,11.23
2023-02-12T15:16:50.302Z,12.88
2023-02-12T15:18:59.172Z,12.43
2023-02-12T15:21:10.803Z,11.00
2023-02-12T15:23:34.021Z,14.05
2023-02-12T15:25:37.440Z,16.83
2023-02-12T15:27:43.892Z,17.52
2023-02-12T15:29:49.119Z,16.95
2023-02-12T15:31:55.310Z,17.35
2023-02-12T15:34:01.782Z,17.05
2023-02-12T15:36:05.526Z,21.30
2023-02-12T15:38:09.496Z,19.40
2023-02-12T15:40:16.127Z,18.33
2023-02-12T15:42:31.492Z,16.83
2023-02-12T15:46:37.664Z,18.17
2023-02-12T15:48:40.534Z,17.88
2023-02-12T15:50:54.239Z,18.42
2023-02-12T15:52:57.721Z,23.98
2023-02-12T15:55:00.612Z,26.65
2023-02-12T15:57:11.345Z,28.13
2023-02-12T15:59:23.821Z,27.95
2023-02-12T16:01:28.584Z,27.17
2023-02-12T16:05:35.741Z,30.58
2023-02-12T16:07:40.116Z,28.15
2023-02-12T16:09:43.907Z,28.75
2023-02-12T16:11:48.221Z,29.42
2023-02-12T16:13:54.119Z,30.30
2023-02-12T16:16:14.968Z,29.95
2023-02-12T16:18:25.199Z,33.50
2023-02-12T16:20:29.768Z,35.83
2023-02-12T16:22:35.224Z,33.60
2023-02-12T16:24:46.322Z,31.77
2023-02-12T16:26:51.025Z,33.28
2023-02-12T16:28:56.588Z,32.13
2023-02-12T16:31:10.933Z,36.35
2023-02-12T16:33:33.295Z,31.97
2023-02-12T16:35:36.894Z,34.85
2023-02-12T16:37:46.129Z,33.75
2023-02-12T16:40:21.330Z,35.25
2023-02-12T16:42:29.299Z,29.65
2023-02-12T16:44:34.565Z,37.15
2023-02-12T16:46:46.736Z,36.03
2023-02-12T16:48:51.696Z,36.25
2023-02-12T16:50:58.517Z,33.05
2023-02-12T16:53:03.100Z,33.28
2023-02-12T16:55:07.538Z,35.38
2023-02-12T16:57:12.767Z,35.67
2023-02-12T16:59:16.920Z,30.83
2023-02-12T17:01:23.539Z,36.80
2023-02-12T17:03:27.061Z,38.15
2023-02-12T17:05:30.066Z,38.05
2023-02-12T17:07:32.932Z,37.53
2023-02-12T17:09:35.919Z,35.88
2023-02-12T17:11:38.708Z,36.53
2023-02-12T17:13:41.504Z,38.80
2023-02-12T17:15:50.696Z,32.85
2023-02-12T17:17:54.099Z,33.63
2023-02-12T17:19:56.824Z,39.72
2023-02-12T17:21:59.954Z,38.22
2023-02-12T17:24:02.829Z,37.55
2023-02-12T17:26:07.242Z,35.92
2023-02-12T17:28:10.045Z,36.63
2023-02-12T17:30:17.131Z,37.50
2023-02-12T17:32:24.319Z,41.90
2023-02-12T17:34:28.782Z,40.42
2023-02-12T17:36:33.226Z,40.35
2023-02-12T17:38:36.043Z,36.72
2023-02-12T17:40:39.884Z,37.50
2023-02-12T17:42:42.590Z,33.28
2023-02-12T17:44:45.299Z,36.45
2023-02-12T17:46:48.139Z,36.08
2023-02-12T17:48:52.400Z,35.20
2023-02-12T17:50:56.708Z,40.53
2023-02-12T17:52:59.676Z,38.17
2023-02-12T17:55:02.557Z,35.50
2023-02-12T17:57:05.553Z,35.75
2023-02-12T17:59:08.366Z,37.88
2023-02-12T18:01:13.109Z,37.33
2023-02-12T18:03:15.959Z,34.88
2023-02-12T18:05:20.081Z,36.72
2023-02-12T18:07:22.806Z,37.05
2023-02-12T18:09:25.544Z,30.77
2023-02-12T18:11:29.349Z,37.25
2023-02-12T18:13:32.191Z,35.22
2023-02-12T18:15:35.015Z,38.92
2023-02-12T18:17:38.425Z,34.92
2023-02-12T18:19:41.139Z,37.17
2023-02-12T18:21:45.295Z,39.33
2023-02-12T18:23:48.146Z,33.08
2023-02-12T18:25:51.011Z,41.22
2023-02-12T18:27:53.827Z,36.30
2023-02-12T18:29:57.351Z,44.28
2023-02-12T18:32:00.185Z,40.72
2023-02-12T18:34:03.198Z,39.42
2023-02-12T18:36:08.302Z,41.75
2023-02-12T18:38:12.423Z,41.58
2023-02-12T18:40:15.613Z,39.30
2023-02-12T18:42:18.438Z,39.00
2023-02-12T18:44:21.211Z,35.25
2023-02-12T18:46:25.992Z,37.08
2023-02-12T18:48:28.826Z,39.65
2023-02-12T18:50:31.591Z,40.92
2023-02-12T18:52:34.463Z,36.95
2023-02-12T18:54:39.374Z,42.38
2023-02-12T18:56:43.974Z,41.60
2023-02-12T18:58:46.908Z,41.13
2023-02-12T19:00:49.903Z,40.60
2023-02-12T19:02:52.712Z,40.95
2023-02-12T19:04:55.515Z,42.42
2023-02-12T19:06:58.813Z,39.63
2023-02-12T19:09:03.720Z,45.00
2023-02-12T19:13:11.373Z,41.95
2023-02-12T19:15:14.200Z,42.40
2023-02-12T19:17:16.950Z,41.63
2023-02-12T19:19:20.980Z,44.85
2023-02-12T19:21:26.055Z,39.78
2023-02-12T19:23:28.846Z,42.05
2023-02-12T19:25:31.644Z,41.95
2023-02-12T19:27:38.261Z,43.22
2023-02-12T19:29:42.442Z,43.22
2023-02-12T19:31:46.828Z,50.30
2023-02-12T19:33:51.186Z,41.58
2023-02-12T19:35:53.923Z,44.85
2023-02-12T19:37:56.809Z,41.58
2023-02-12T19:39:59.599Z,43.08
2023-02-12T19:42:02.422Z,42.65
2023-02-12T19:44:06.616Z,46.33
2023-02-12T19:46:11.692Z,39.72
2023-02-12T19:48:14.470Z,45.00
2023-02-12T19:50:17.403Z,45.00
2023-02-12T19:52:20.225Z,40.05
2023-02-12T19:54:24.343Z,46.22
2023-02-12T19:56:27.627Z,40.88
2023-02-12T19:58:31.382Z,42.28
2023-02-12T20:00:35.602Z,40.92
2023-02-12T20:02:38.403Z,39.10
2023-02-12T20:04:41.265Z,43.05
2023-02-12T20:06:45.809Z,37.80
2023-02-12T20:08:49.515Z,40.10
2023-02-12T20:10:52.651Z,37.65
2023-02-12T20:12:55.534Z,43.33
2023-02-12T20:15:00.880Z,41.53
2023-02-12T20:17:05.811Z,42.83
2023-02-12T20:19:11.684Z,45.67
2023-02-12T20:21:17.840Z,46.75
2023-02-12T20:23:20.675Z,41.28
2023-02-12T20:25:23.622Z,43.35
2023-02-12T20:27:26.414Z,37.47
2023-02-12T20:29:29.483Z,42.28
2023-02-12T20:31:34.505Z,47.67
2023-02-12T20:33:39.415Z,46.67
2023-02-12T20:37:46.649Z,46.92
2023-02-12T20:39:49.473Z,44.28
2023-02-12T20:41:52.268Z,48.03
2023-02-12T20:43:55.905Z,45.05
2023-02-12T20:46:05.106Z,44.78
2023-02-12T20:48:07.909Z,41.58
2023-02-12T20:50:12.345Z,43.13
2023-02-12T20:52:15.305Z,44.72
2023-02-12T20:54:18.210Z,46.05
2023-02-12T20:56:39.372Z,45.60
2023-02-12T20:58:44.679Z,42.70
2023-02-12T21:00:47.549Z,41.22
2023-02-12T21:02:50.605Z,41.60
2023-02-12T21:04:53.514Z,41.15
2023-02-12T21:06:57.698Z,43.70
2023-02-12T21:09:00.648Z,49.97
2023-02-12T21:11:05.672Z,41.38
2023-02-12T21:13:08.485Z,45.88
2023-02-12T21:15:11.244Z,43.35
2023-02-12T21:17:14.185Z,34.47
2023-02-12T21:19:18.057Z,37.30
2023-02-12T21:21:24.357Z,49.60
2023-02-12T21:23:28.511Z,42.80
2023-02-12T21:25:31.265Z,48.40
2023-02-12T21:27:36.801Z,44.60
2023-02-12T21:29:40.352Z,46.10
2023-02-12T21:31:46.443Z,36.40
2023-02-12T21:33:51.931Z,48.17
2023-02-12T21:35:55.179Z,47.03
2023-02-12T21:37:58.127Z,48.97
2023-02-12T21:40:02.270Z,48.05
2023-02-12T21:42:05.276Z,49.28
2023-02-12T21:44:11.479Z,48.08
2023-02-12T21:46:16.146Z,47.72
2023-02-12T21:50:22.168Z,37.10
2023-02-12T21:52:24.940Z,51.33
2023-02-12T21:54:28.823Z,43.38
2023-02-12T21:56:33.425Z,46.03
2023-02-12T21:58:36.238Z,46.15
2023-02-12T22:00:39.129Z,43.63
2023-02-12T22:02:42.011Z,46.22
2023-02-12T22:04:45.413Z,44.63
2023-02-12T22:06:50.581Z,42.17
2023-02-12T22:08:54.322Z,51.65
2023-02-12T22:10:57.922Z,47.20
2023-02-12T22:13:02.559Z,50.58
2023-02-12T22:15:06.022Z,49.63
2023-02-12T22:17:08.795Z,47.92
2023-02-12T22:19:11.587Z,44.60
2023-02-12T22:21:16.156Z,46.75
2023-02-12T22:23:18.934Z,44.40
2023-02-12T22:25:22.564Z,46.47
2023-02-12T22:27:25.365Z,45.30
2023-02-12T22:29:29.477Z,43.80
2023-02-12T22:31:34.851Z,41.80
2023-02-12T22:33:37.878Z,41.40
2023-02-12T22:35:40.629Z,42.03
2023-02-12T22:37:43.526Z,46.15
2023-02-12T22:39:46.274Z,39.63
2023-02-12T22:41:49.457Z,50.42
2023-02-12T22:43:52.298Z,38.60
2023-02-12T22:45:56.680Z,45.05
2023-02-12T22:47:59.443Z,47.00
2023-02-12T22:50:02.498Z,45.40
2023-02-12T22:52:05.689Z,54.88
2023-02-12T22:54:08.916Z,39.75
2023-02-12T22:56:11.799Z,45.42
2023-02-12T22:58:14.581Z,40.13
2023-02-12T23:00:18.677Z,43.45
2023-02-12T23:02:22.867Z,44.08
2023-02-12T23:04:25.992Z,44.72
2023-02-12T23:06:30.920Z,40.92
2023-02-12T23:08:34.766Z,43.90
2023-02-12T23:10:37.528Z,41.22
2023-02-12T23:12:40.325Z,42.30
2023-02-12T23:14:43.167Z,40.45
2023-02-12T23:16:46.607Z,39.72
2023-02-12T23:18:55.340Z,36.45
2023-02-12T23:20:58.556Z,40.92
2023-02-12T23:23:01.610Z,39.08
2023-02-12T23:25:04.626Z,39.75
2023-02-12T23:27:07.396Z,38.88
2023-02-12T23:29:10.167Z,34.83
2023-02-12T23:31:13.036Z,37.00
2023-02-12T23:33:16.440Z,33.50
2023-02-12T23:35:20.617Z,40.67
2023-02-12T23:37:23.584Z,36.42
2023-02-12T23:39:26.325Z,40.38
2023-02-12T23:41:29.126Z,35.25
2023-02-12T23:43:32.729Z,30.38
2023-02-12T23:45:35.706Z,32.92
2023-02-12T23:47:38.489Z,31.88
2023-02-12T23:49:41.350Z,40.65
2023-02-12T23:51:46.268Z,41.28
2023-02-12T23:55:52.002Z,33.63
2023-02-12T23:57:54.772Z,37.42
2023-02-12T23:59:57.547Z,34.05
